TAF MNRS
METAR MNRS
MNRS 072300Z 12004KT 9999 FEW015 29/21 Q1008=
MNRS 072200Z 12006KT 9999 FEW015 30/22 Q1007=
MNRS 072100Z 12006KT 9999 FEW015 30/22 Q1007=
MNRS 072000Z 12006KT 9999 FEW014 30/22 Q1008=
MNRS 071900Z 12008KT 9999 SCT014 29/23 Q1010=
WC MNRS
WS MNRS
WV MNRS